sensor_id;sensor_type;location;lat;lon;timestamp;pressure;altitude;pressure_sealevel;temperature;humidity
61740;BME280;47645;45.288;12.038;2023-09-19T00:04:31;1011.0739090248459;;;22.455859375;100
61740;BME280;47645;45.288;12.038;2023-09-19T00:14:25;1011.1032245728525;;;22.455859375;100
61740;BME280;47645;45.288;12.038;2023-09-19T00:24:24;1011.0523267402978;;;22.34375;100
61740;BME280;47645;45.288;12.038;2023-09-19T00:34:25;1010.9575643085442;;;22.2775390625;100
61740;BME280;47645;45.288;12.038;2023-09-19T00:44:27;1010.8666658081571;;;22.2927734375;100
61740;BME280;47645;45.288;12.038;2023-09-19T00:54:30;1010.8276272092936;;;22.2876953125;100
61740;BME280;47645;45.288;12.038;2023-09-19T01:04:29;1010.7487788017464;;;22.2265625;100
61740;BME280;47645;45.288;12.038;2023-09-19T01:14:36;1010.7413934078954;;;22.124609375;100
61740;BME280;47645;45.288;12.038;2023-09-19T01:24:59;1010.7185274715366;;;22.0685546875;100
61740;BME280;47645;45.288;12.038;2023-09-19T01:34:50;1010.7453610756941;;;22.037890625;100
61740;BME280;47645;45.288;12.038;2023-09-19T01:44:40;1010.6702929336508;;;21.686328125;100
61740;BME280;47645;45.288;12.038;2023-09-19T01:54:41;1010.747118772002;;;21.619921875;100
61740;BME280;47645;45.288;12.038;2023-09-19T02:04:37;1010.7656697296974;;;21.6556640625;100
61740;BME280;47645;45.288;12.038;2023-09-19T02:14:38;1010.7602192026953;;;21.6404296875;100
61740;BME280;47645;45.288;12.038;2023-09-19T02:24:40;1010.7906065663957;;;21.584375;100
61740;BME280;47645;45.288;12.038;2023-09-19T02:34:42;1010.7679998030798;;;21.502734375;100
61740;BME280;47645;45.288;12.038;2023-09-19T02:44:42;1010.7892019174282;;;21.4619140625;100
61740;BME280;47645;45.288;12.038;2023-09-19T02:54:45;1010.8232678752329;;;21.416015625;100
61740;BME280;47645;45.288;12.038;2023-09-19T03:04:47;1010.8868875890429;;;21.5537109375;99.19931611450443
61740;BME280;47645;45.288;12.038;2023-09-19T03:14:46;1010.8586173651161;;;21.4669921875;99.21546981115837
61740;BME280;47645;45.288;12.038;2023-09-19T03:24:48;1010.7831476595649;;;21.42109375;99.53734527127598
61740;BME280;47645;45.288;12.038;2023-09-19T03:34:49;1010.7023993309526;;;21.4109375;99.91477424837329
61740;BME280;47645;45.288;12.038;2023-09-19T03:44:50;1010.6076041949335;;;21.2427734375;99.96213380922792
61740;BME280;47645;45.288;12.038;2023-09-19T03:54:51;1010.6368853969378;;;21.2427734375;99.87736690693612
61740;BME280;47645;45.288;12.038;2023-09-19T04:04:52;1010.5119034393965;;;21.18671875;100
61740;BME280;47645;45.288;12.038;2023-09-19T04:14:54;1010.6185101606881;;;21.1;100
61740;BME280;47645;45.288;12.038;2023-09-19T04:24:55;1010.6840982592503;;;21.1154296875;100
61740;BME280;47645;45.288;12.038;2023-09-19T04:35:00;1010.85324023265;;;20.8248046875;100
61740;BME280;47645;45.288;12.038;2023-09-19T04:44:57;1010.9366520938624;;;20.671875;100
61740;BME280;47645;45.288;12.038;2023-09-19T04:54:59;1011.0147463734443;;;20.89609375;99.29743476162331
61740;BME280;47645;45.288;12.038;2023-09-19T05:05:01;1011.1719223227363;;;21.003125;99.49871935126009
61740;BME280;47645;45.288;12.038;2023-09-19T05:15:02;1011.2633086171195;;;20.860546875;98.67843758741888
61740;BME280;47645;45.288;12.038;2023-09-19T05:25:06;1011.3869148068744;;;20.870703125;99.20007993175867
61740;BME280;47645;45.288;12.038;2023-09-19T05:35:05;1011.5270698094748;;;20.366015625;100
61740;BME280;47645;45.288;12.038;2023-09-19T05:40:09;1011.5049355375081;;;20.44765625;100
61740;BME280;47645;45.288;12.038;2023-09-19T05:50:09;1011.6396959304329;;;20.8095703125;100
61740;BME280;47645;45.288;12.038;2023-09-19T06:00:10;1011.8204569042204;;;20.97265625;100
61740;BME280;47645;45.288;12.038;2023-09-19T06:10:09;1011.8859834727198;;;21.0185546875;100
61740;BME280;47645;45.288;12.038;2023-09-19T06:20:13;1011.9564126925263;;;21.2529296875;100
61740;BME280;47645;45.288;12.038;2023-09-19T06:30:12;1011.9733628836241;;;21.201953125;100
61740;BME280;47645;45.288;12.038;2023-09-19T06:40:15;1012.2299177800456;;;21.5384765625;100
61740;BME280;47645;45.288;12.038;2023-09-19T06:50:15;1012.3605655133024;;;21.813671875;100
61740;BME280;47645;45.288;12.038;2023-09-19T07:00:19;1012.3922063906587;;;22.017578125;100
61740;BME280;47645;45.288;12.038;2023-09-19T07:10:16;1012.4151143267825;;;22.007421875;100
61740;BME280;47645;45.288;12.038;2023-09-19T07:20:17;1012.5438011934763;;;22.1552734375;100
61740;BME280;47645;45.288;12.038;2023-09-19T07:30:19;1012.5077088690324;;;22.5833984375;100
61740;BME280;47645;45.288;12.038;2023-09-19T07:40:20;1012.705351288524;;;22.9248046875;100
61740;BME280;47645;45.288;12.038;2023-09-19T07:50:21;1012.848693670348;;;23.0830078125;94.2315015715633
61740;BME280;47645;45.288;12.038;2023-09-19T08:00:22;1012.9987205938046;;;23.475390625;94.22798340247157
61740;BME280;47645;45.288;12.038;2023-09-19T08:10:28;1013.0385577523637;;;23.7201171875;95.3500192161097
61740;BME280;47645;45.288;12.038;2023-09-19T08:20:25;1013.0210109029074;;;23.873046875;91.65340544202991
61740;BME280;47645;45.288;12.038;2023-09-19T08:40:30;1013.1335769308876;;;24.484765625;90.63341814099023
61740;BME280;47645;45.288;12.038;2023-09-19T08:50:29;1013.1813819910926;;;24.68359375;88.25667004434952
61740;BME280;47645;45.288;12.038;2023-09-19T09:00:30;1013.1601949126504;;;24.99453125;86.76225007977587
61740;BME280;47645;45.288;12.038;2023-09-19T09:10:31;1013.190505537439;;;25.5958984375;85.2655190969379
61740;BME280;47645;45.288;12.038;2023-09-19T09:20:33;1013.2802253947691;;;25.8048828125;81.9116120607056
61740;BME280;47645;45.288;12.038;2023-09-19T09:30:35;1013.2268716044804;;;26.8193359375;78.40705554687365
61740;BME280;47645;45.288;12.038;2023-09-19T09:40:47;1013.2048761250032;;;26.8091796875;77.42124575702596
61740;BME280;47645;45.288;12.038;2023-09-19T09:50:47;1013.2187742943397;;;26.972265625;74.91424659464532
61740;BME280;47645;45.288;12.038;2023-09-19T10:00:52;1013.0881594314901;;;27.058984375;71.8509492247468
61740;BME280;47645;45.288;12.038;2023-09-19T10:10:54;1013.0925011814697;;;27.8490234375;70.88044234693312
61740;BME280;47645;45.288;12.038;2023-09-19T10:20:46;1013.1137443384042;;;28.41484375;69.93901585705026
61740;BME280;47645;45.288;12.038;2023-09-19T10:30:47;1013.150198875664;;;28.787109375;64.8843646526222
61740;BME280;47645;45.288;12.038;2023-09-19T10:40:49;1013.1440740578774;;;29.6689453125;63.038133260731996
61740;BME280;47645;45.288;12.038;2023-09-19T10:50:50;1013.1138953825622;;;30.0767578125;60.90108700533293
61740;BME280;47645;45.288;12.038;2023-09-19T11:00:52;1013.0124627170419;;;30.5966796875;57.56365553616887
61740;BME280;47645;45.288;12.038;2023-09-19T11:10:51;1012.9450187836445;;;31.9068359375;60.327223410870054
61740;BME280;47645;45.288;12.038;2023-09-19T11:21:41;1012.9108720848728;;;32.16171875;56.07476426138676
61740;BME280;47645;45.288;12.038;2023-09-19T11:30:54;1012.8593464684931;;;33.145703125;52.48758243979252
61740;BME280;47645;45.288;12.038;2023-09-19T11:41:37;1012.8635591165148;;;33.349609375;51.53233002824196
61740;BME280;47645;45.288;12.038;2023-09-19T11:50:58;1012.8441068632605;;;32.5748046875;48.59282713645006
61740;BME280;47645;45.288;12.038;2023-09-19T12:01:00;1012.7497024006323;;;33.528125;48.83609729941596
61740;BME280;47645;45.288;12.038;2023-09-19T12:11:02;1012.6279207817702;;;34.1296875;54.5262938401645
61740;BME280;47645;45.288;12.038;2023-09-19T12:21:05;1012.6317360173094;;;34.3794921875;46.98661784262654
61740;BME280;47645;45.288;12.038;2023-09-19T12:31:09;1012.5115595966697;;;35.0880859375;52.39455501983823
61740;BME280;47645;45.288;12.038;2023-09-19T12:41:10;1012.4870499488426;;;35.353125;52.64849961912727
61740;BME280;47645;45.288;12.038;2023-09-19T12:51:11;1012.6048710522839;;;34.7158203125;42.46150434931847
61740;BME280;47645;45.288;12.038;2023-09-19T13:01:15;1012.5168332094419;;;35.07265625;52.18132345034469
61740;BME280;47645;45.288;12.038;2023-09-19T13:11:15;1012.4353194942206;;;35.2869140625;53.29163124572691
61740;BME280;47645;45.288;12.038;2023-09-19T13:21:34;1012.4846982256573;;;34.6087890625;49.678770913821864
61740;BME280;47645;45.288;12.038;2023-09-19T13:31:17;1012.4250049411942;;;34.669921875;55.08910807228048
61740;BME280;47645;45.288;12.038;2023-09-19T13:41:19;1012.4082249931886;;;35.1951171875;46.112142036282506
61740;BME280;47645;45.288;12.038;2023-09-19T13:51:22;1012.3838280476101;;;34.8841796875;40.40473384931164
61740;BME280;47645;45.288;12.038;2023-09-19T14:01:24;1012.3001614248974;;;33.7421875;39.78877463504956
61740;BME280;47645;45.288;12.038;2023-09-19T14:11:25;1012.2621127107327;;;34.4763671875;47.442694871980144
61740;BME280;47645;45.288;12.038;2023-09-19T14:21:26;1012.2390425840983;;;34.833203125;52.022574025996136
61740;BME280;47645;45.288;12.038;2023-09-19T14:31:28;1012.1971206936579;;;35.037109375;54.62092266201003
61740;BME280;47645;45.288;12.038;2023-09-19T14:41:31;1012.2659590487914;;;35.251171875;54.40802396099738
61740;BME280;47645;45.288;12.038;2023-09-19T14:51:32;1012.2429373126406;;;35.1951171875;50.69966171723517
61740;BME280;47645;45.288;12.038;2023-09-19T15:01:34;1012.2489698363462;;;34.93515625;40.665325010020936
61740;BME280;47645;45.288;12.038;2023-09-19T15:11:36;1012.1791416031288;;;35.16953125;50.41510203650835
61740;BME280;47645;45.288;12.038;2023-09-19T15:21:38;1012.3069924570988;;;34.86875;55.61387599946244
61740;BME280;47645;45.288;12.038;2023-09-19T15:31:40;1012.5392271069363;;;33.84921875;55.967505523129766
61740;BME280;47645;45.288;12.038;2023-09-19T15:41:45;1012.579204135338;;;33.349609375;58.87515903747129
61740;BME280;47645;45.288;12.038;2023-09-19T15:51:44;1012.6621284211268;;;32.86015625;60.958058362481616
61740;BME280;47645;45.288;12.038;2023-09-19T16:01:46;1012.8219078961494;;;32.1720703125;65.55511898156988
61740;BME280;47645;45.288;12.038;2023-09-19T16:11:49;1012.9847928118427;;;31.5296875;66.18759611768053
61740;BME280;47645;45.288;12.038;2023-09-19T16:21:49;1012.9722590022456;;;30.7802734375;62.10369226008585
61740;BME280;47645;45.288;12.038;2023-09-19T16:31:52;1013.0571251471978;;;30.428515625;68.8083203120703
61740;BME280;47645;45.288;12.038;2023-09-19T16:41:53;1013.506241139654;;;27.4056640625;70.56843407396472
61740;BME280;47645;45.288;12.038;2023-09-19T16:51:55;1013.5188039189478;;;27.56875;75.61213517172334
61740;BME280;47645;45.288;12.038;2023-09-19T17:01:58;1013.5207075303977;;;27.155859375;79.39235239293798
61740;BME280;47645;45.288;12.038;2023-09-19T17:11:59;1013.5205589358392;;;26.9314453125;84.03409256248226
61740;BME280;47645;45.288;12.038;2023-09-19T17:22:01;1013.5160441168875;;;25.815234375;77.13935831732329
61740;BME280;47645;45.288;12.038;2023-09-19T17:32:03;1013.5585523141011;;;26.641015625;82.92626014879859
61740;BME280;47645;45.288;12.038;2023-09-19T17:42:06;1013.5691629289614;;;26.437109375;83.57291143006417
61740;BME280;47645;45.288;12.038;2023-09-19T17:52:05;1013.6806919098028;;;26.6306640625;86.33856284943745
61740;BME280;47645;45.288;12.038;2023-09-19T18:02:07;1013.9035077044567;;;24.9486328125;84.1478031166052
61740;BME280;47645;45.288;12.038;2023-09-19T18:12:09;1014.0899045120523;;;25.0861328125;84.70462579153775
61740;BME280;47645;45.288;12.038;2023-09-19T18:22:12;1014.1656774110411;;;24.99453125;90.87344386098204
61740;BME280;47645;45.288;12.038;2023-09-19T18:32:11;1014.2731861832648;;;24.505078125;84.87183530639574
61740;BME280;47645;45.288;12.038;2023-09-19T18:42:12;1014.370436173565;;;24.087109375;91.96514851332861
61740;BME280;47645;45.288;12.038;2023-09-19T18:52:14;1014.5030611842573;;;24.0361328125;86.921517918399
61740;BME280;47645;45.288;12.038;2023-09-19T19:02:16;1014.6632375784937;;;23.8119140625;94.1138928261593
61740;BME280;47645;45.288;12.038;2023-09-19T19:12:17;1014.6995080156922;;;24.2298828125;89.05407010665931
61740;BME280;47645;45.288;12.038;2023-09-19T19:22:20;1014.5935573567028;;;23.5263671875;95.98611265384622
61740;BME280;47645;45.288;12.038;2023-09-19T19:32:25;1014.634687073669;;;23.8015625;91.99399705643415
61740;BME280;47645;45.288;12.038;2023-09-19T19:42:21;1014.6195850511481;;;23.3224609375;93.49627405664077
61740;BME280;47645;45.288;12.038;2023-09-19T19:52:25;1014.6278567875248;;;23.6232421875;95.38432926162255
61740;BME280;47645;45.288;12.038;2023-09-19T20:02:24;1014.6045722268077;;;23.05234375;97.1379533078306
61740;BME280;47645;45.288;12.038;2023-09-19T20:12:26;1014.7469182797747;;;23.3275390625;97.75293069319095
61740;BME280;47645;45.288;12.038;2023-09-19T20:22:28;1014.6317166462525;;;23.164453125;96.48241226809171
61740;BME280;47645;45.288;12.038;2023-09-19T20:32:30;1014.7871595856211;;;23.485546875;94.3543635884271
61740;BME280;47645;45.288;12.038;2023-09-19T20:42:30;1014.7771226835098;;;22.72109375;99.25106569329752
61740;BME280;47645;45.288;12.038;2023-09-19T20:52:32;1014.7379258728416;;;23.159375;97.06563715434724
61740;BME280;47645;45.288;12.038;2023-09-19T21:02:34;1014.7857013814237;;;23.465234375;94.67049046422783
61740;BME280;47645;45.288;12.038;2023-09-19T21:12:34;1014.8847702719082;;;22.853515625;98.9167554189574
61740;BME280;47645;45.288;12.038;2023-09-19T21:22:36;1014.8646875025089;;;22.649609375;100
61740;BME280;47645;45.288;12.038;2023-09-19T21:32:36;1014.8166689034363;;;22.3896484375;100
61740;BME280;47645;45.288;12.038;2023-09-19T21:42:38;1014.7324473388528;;;21.900390625;100
61740;BME280;47645;45.288;12.038;2023-09-19T21:52:39;1014.647044679392;;;21.7525390625;100
61740;BME280;47645;45.288;12.038;2023-09-19T22:02:40;1014.6471809636869;;;21.9462890625;100
61740;BME280;47645;45.288;12.038;2023-09-19T22:12:42;1014.6871900907103;;;21.9564453125;100
61740;BME280;47645;45.288;12.038;2023-09-19T22:22:43;1014.6978382257887;;;21.512890625;100
61740;BME280;47645;45.288;12.038;2023-09-19T22:32:45;1014.724084026558;;;21.4314453125;100
61740;BME280;47645;45.288;12.038;2023-09-19T22:42:48;1014.8220787844753;;;21.2734375;100
61740;BME280;47645;45.288;12.038;2023-09-19T22:52:51;1014.8808585302972;;;21.1103515625;100
61740;BME280;47645;45.288;12.038;2023-09-19T23:02:49;1014.8376061568032;;;20.860546875;100
61740;BME280;47645;45.288;12.038;2023-09-19T23:12:50;1014.8283894200908;;;20.794140625;100
61740;BME280;47645;45.288;12.038;2023-09-19T23:22:54;1014.878454167881;;;20.6056640625;100
61740;BME280;47645;45.288;12.038;2023-09-19T23:32:53;1014.8363681858443;;;20.4375;100
61740;BME280;47645;45.288;12.038;2023-09-19T23:42:55;1014.8585203879677;;;20.4169921875;100
61740;BME280;47645;45.288;12.038;2023-09-19T23:52:56;1014.8860015828884;;;20.2080078125;100
